Time;durP1;ratioP1;P1;durP2;ratioP2;P2;SDS_P1;SDS_P2;PMS_P1;PMS_P2;Temp;Humidity;BMP_temperature;BMP_pressure;BME280_temperature;BME280_humidity;BME280_pressure;Samples;Min_cycle;Max_cycle;Signal;HPM_P1;HPM_P2
2021/06/14 00:02:12;;;;;;;2.88;1.80;;;19.40;52.40;;;;;;5072568;28;20033;-77
2021/06/14 00:04:37;;;;;;;3.20;2.03;;;19.40;52.50;;;;;;5071506;28;20407;-77
2021/06/14 00:07:03;;;;;;;4.93;2.25;;;19.30;52.50;;;;;;5071829;28;20036;-76
2021/06/14 00:09:30;;;;;;;3.58;2.10;;;19.30;52.60;;;;;;5075584;28;20032;-77
2021/06/14 00:11:57;;;;;;;4.07;2.00;;;19.30;52.70;;;;;;5076859;28;20031;-77
2021/06/14 00:14:24;;;;;;;3.40;2.17;;;19.30;52.80;;;;;;5076910;28;20481;-77
2021/06/14 00:16:49;;;;;;;3.17;2.10;;;19.20;52.90;;;;;;5075356;28;20095;-77
2021/06/14 00:19:15;;;;;;;3.50;2.15;;;19.20;53.00;;;;;;5076687;28;20421;-77
2021/06/14 00:21:41;;;;;;;3.17;1.90;;;19.20;53.10;;;;;;5076633;28;20040;-77
2021/06/14 00:24:07;;;;;;;2.78;2.10;;;19.10;53.20;;;;;;5076602;28;20025;-77
2021/06/14 00:26:33;;;;;;;3.40;2.03;;;19.10;53.40;;;;;;5076588;28;20033;-77
2021/06/14 00:28:59;;;;;;;3.50;1.90;;;19.00;53.60;;;;;;5075005;28;20781;-76
2021/06/14 00:31:25;;;;;;;2.45;1.80;;;19.00;53.70;;;;;;5075282;28;20142;-77
2021/06/14 00:33:51;;;;;;;3.30;1.88;;;19.00;53.80;;;;;;5076518;28;20034;-77
2021/06/14 00:36:16;;;;;;;3.50;2.03;;;18.90;53.80;;;;;;5076409;28;20104;-77
2021/06/14 00:38:42;;;;;;;3.97;2.20;;;18.90;54.00;;;;;;5076363;28;20415;-77
2021/06/14 00:41:11;;;;;;;3.35;1.98;;;18.90;54.10;;;;;;5076248;28;20025;-77
2021/06/14 00:43:38;;;;;;;3.97;2.00;;;18.80;54.30;;;;;;5076227;28;20111;-77
2021/06/14 00:46:05;;;;;;;3.22;1.90;;;18.80;54.40;;;;;;5074971;28;20403;-76
2021/06/14 00:48:31;;;;;;;4.32;2.10;;;18.80;54.50;;;;;;5076097;28;20024;-77
2021/06/14 00:51:01;;;;;;;2.80;1.88;;;18.80;54.60;;;;;;5074779;28;20484;-77
2021/06/14 00:53:34;;;;;;;4.20;2.00;;;18.70;54.60;;;;;;5074810;28;20086;-77
2021/06/14 00:56:03;;;;;;;5.57;2.08;;;18.70;54.70;;;;;;5074662;28;20036;-77
2021/06/14 00:58:29;;;;;;;2.53;1.88;;;18.70;54.80;;;;;;5074646;28;20039;-77
2021/06/14 01:00:56;;;;;;;4.03;2.08;;;18.70;54.90;;;;;;5074593;28;20025;-77
2021/06/14 01:03:22;;;;;;;3.83;2.17;;;18.70;55.00;;;;;;5074474;28;20460;-77
2021/06/14 01:05:50;;;;;;;3.33;2.08;;;18.70;55.10;;;;;;5075834;28;20103;-77
2021/06/14 01:08:16;;;;;;;2.97;2.00;;;18.60;55.20;;;;;;5075810;28;20570;-77
2021/06/14 01:10:44;;;;;;;3.70;2.28;;;18.60;55.20;;;;;;5074534;28;20553;-76
2021/06/14 01:13:37;;;;;;;3.20;2.10;;;18.60;55.30;;;;;;5074410;28;20487;-77
2021/06/14 01:16:15;;;;;;;5.05;2.20;;;18.50;55.50;;;;;;5074161;28;20407;-76
2021/06/14 01:18:48;;;;;;;3.28;1.90;;;18.40;55.50;;;;;;5073869;28;20075;-77
2021/06/14 01:21:34;;;;;;;;;;;18.40;55.60;;;;;;5074727;28;20024;-76
2021/06/14 01:24:09;;;;;;;3.33;2.20;;;18.40;55.50;;;;;;5073272;28;19916;-77
2021/06/14 01:27:00;;;;;;;4.03;2.10;;;18.40;55.60;;;;;;5075489;28;20453;-76
2021/06/14 01:29:27;;;;;;;4.05;2.25;;;18.40;55.80;;;;;;5066407;28;20044;-76
2021/06/14 01:31:55;;;;;;;5.10;2.10;;;18.40;55.80;;;;;;5075374;28;20100;-76
2021/06/14 01:34:26;;;;;;;3.15;2.25;;;18.40;55.90;;;;;;5075369;28;20115;-76
2021/06/14 01:36:54;;;;;;;2.75;2.08;;;18.40;56.00;;;;;;5075238;28;20024;-76
2021/06/14 01:39:21;;;;;;;4.63;2.60;;;18.40;56.00;;;;;;5073937;28;20020;-77
2021/06/14 01:41:47;;;;;;;4.22;2.40;;;18.30;56.10;;;;;;5074193;28;20028;-76
2021/06/14 01:44:13;;;;;;;3.97;2.40;;;18.30;56.10;;;;;;5073787;28;20067;-76
2021/06/14 01:46:41;;;;;;;3.67;2.22;;;18.30;56.20;;;;;;5075074;28;20032;-77
2021/06/14 01:49:07;;;;;;;3.17;2.25;;;18.30;56.30;;;;;;5075148;28;20099;-76
2021/06/14 01:51:36;;;;;;;3.95;2.40;;;18.20;56.40;;;;;;5073707;28;20022;-77
2021/06/14 01:54:06;;;;;;;3.30;2.33;;;18.20;56.50;;;;;;5075002;28;20078;-76
2021/06/14 01:56:37;;;;;;;4.57;2.30;;;18.20;56.50;;;;;;5074935;28;20037;-77
2021/06/14 01:59:05;;;;;;;5.47;2.50;;;18.20;56.60;;;;;;5073343;28;20024;-76
2021/06/14 02:01:32;;;;;;;4.40;2.20;;;18.20;56.60;;;;;;5073556;28;20032;-77
2021/06/14 02:03:59;;;;;;;5.22;2.40;;;18.10;56.70;;;;;;5073375;28;20443;-77
2021/06/14 02:06:38;;;;;;;2.80;2.30;;;18.10;56.80;;;;;;5073564;28;20036;-77
2021/06/14 02:09:13;;;;;;;3.55;2.38;;;18.10;56.90;;;;;;5073372;28;20029;-76
2021/06/14 02:11:43;;;;;;;3.97;2.60;;;18.10;57.00;;;;;;5073405;28;20052;-76
2021/06/14 02:14:13;;;;;;;3.28;2.30;;;18.00;57.00;;;;;;5073597;28;20050;-76
2021/06/14 02:16:41;;;;;;;5.28;2.53;;;18.00;57.20;;;;;;5074379;28;20186;-76
2021/06/14 02:19:06;;;;;;;3.53;2.50;;;18.00;57.20;;;;;;5074465;28;20037;-77
2021/06/14 02:21:32;;;;;;;4.68;2.90;;;17.90;57.30;;;;;;5073661;28;20035;-76
2021/06/14 02:23:58;;;;;;;5.22;2.88;;;17.90;57.40;;;;;;5074535;28;20072;-76
2021/06/14 02:26:24;;;;;;;5.28;2.45;;;17.90;57.50;;;;;;5073258;28;20028;-76
2021/06/14 02:28:50;;;;;;;2.88;2.30;;;17.90;57.50;;;;;;5074257;28;20035;-76
2021/06/14 02:31:16;;;;;;;5.85;2.58;;;17.90;57.60;;;;;;5074069;28;20051;-76
2021/06/14 02:33:42;;;;;;;5.05;2.60;;;17.80;57.70;;;;;;5072922;28;20403;-76
2021/06/14 02:36:08;;;;;;;4.38;2.60;;;17.80;57.80;;;;;;5072861;28;20028;-77
2021/06/14 02:38:35;;;;;;;3.90;2.53;;;17.80;57.90;;;;;;5072870;28;20025;-77
2021/06/14 02:41:02;;;;;;;4.43;2.60;;;17.70;58.00;;;;;;5072820;28;20020;-77
2021/06/14 02:43:28;;;;;;;4.32;2.50;;;17.70;58.00;;;;;;5073877;28;20051;-76
2021/06/14 02:45:54;;;;;;;5.35;2.72;;;17.70;58.20;;;;;;5072608;28;20021;-76
2021/06/14 02:48:22;;;;;;;6.28;2.80;;;17.70;58.30;;;;;;5072767;28;20110;-76
2021/06/14 02:50:48;;;;;;;5.13;2.90;;;17.60;58.40;;;;;;5073817;28;20031;-76
2021/06/14 02:53:15;;;;;;;5.60;2.80;;;17.60;58.50;;;;;;5072520;28;20032;-76
2021/06/14 02:55:56;;;;;;;3.35;2.47;;;17.60;58.70;;;;;;5073778;28;20025;-76
2021/06/14 02:58:31;;;;;;;5.15;2.90;;;17.60;58.80;;;;;;5072446;28;20039;-76
2021/06/14 03:00:58;;;;;;;4.38;2.67;;;17.50;58.80;;;;;;5073532;28;20028;-76
2021/06/14 03:03:23;;;;;;;4.45;2.90;;;17.50;58.90;;;;;;5072268;28;20459;-77
2021/06/14 03:05:50;;;;;;;4.40;2.90;;;17.50;59.00;;;;;;5072420;28;20025;-76
2021/06/14 03:08:19;;;;;;;5.00;2.75;;;17.50;59.10;;;;;;5073439;28;20439;-77
2021/06/14 03:10:46;;;;;;;4.28;2.40;;;17.40;59.30;;;;;;5073456;28;20051;-76
2021/06/14 03:13:13;;;;;;;4.18;2.95;;;17.40;59.40;;;;;;5072124;28;20531;-76
2021/06/14 03:15:39;;;;;;;7.78;3.05;;;17.40;59.60;;;;;;5073264;28;20102;-76
2021/06/14 03:18:07;;;;;;;5.78;3.10;;;17.30;59.60;;;;;;5073585;28;20082;-76
2021/06/14 03:20:34;;;;;;;4.03;2.75;;;17.30;59.80;;;;;;5072145;28;20035;-76
2021/06/14 03:23:00;;;;;;;4.22;2.58;;;17.30;59.90;;;;;;5071736;28;20522;-76
2021/06/14 03:25:26;;;;;;;3.95;2.50;;;17.20;60.00;;;;;;5071886;28;20024;-76
2021/06/14 03:27:52;;;;;;;4.38;2.78;;;17.20;60.10;;;;;;5071930;28;20021;-76
2021/06/14 03:30:23;;;;;;;5.93;3.33;;;17.20;60.30;;;;;;5073165;28;20028;-76
2021/06/14 03:32:50;;;;;;;5.43;3.03;;;17.20;60.40;;;;;;5071843;28;20021;-76
2021/06/14 03:35:18;;;;;;;4.03;3.30;;;17.10;60.40;;;;;;5073081;28;20076;-76
2021/06/14 03:41:05;;;;;;;6.85;3.50;;;17.10;60.80;;;;;;5073176;28;20448;-76
2021/06/14 03:43:31;;;;;;;5.88;3.47;;;17.10;60.70;;;;;;5072443;28;20060;-77
2021/06/14 03:45:58;;;;;;;7.03;3.72;;;17.10;60.90;;;;;;5072920;28;20529;-76
2021/06/14 03:48:23;;;;;;;6.10;3.22;;;17.10;61.20;;;;;;5073050;28;20124;-76
2021/06/14 03:50:54;;;;;;;5.40;3.15;;;17.00;61.20;;;;;;5072938;28;20055;-76
2021/06/14 03:53:32;;;;;;;6.03;3.42;;;17.00;61.30;;;;;;5072824;28;20034;-76
2021/06/14 03:56:12;;;;;;;6.40;3.47;;;17.00;61.40;;;;;;5072724;28;20060;-76
2021/06/14 03:58:38;;;;;;;4.78;3.17;;;17.00;61.50;;;;;;5071635;28;20471;-77
2021/06/14 04:01:04;;;;;;;5.45;3.45;;;17.10;61.50;;;;;;5071338;28;20087;-76
2021/06/14 04:03:30;;;;;;;6.20;3.53;;;17.00;61.60;;;;;;5071540;28;20115;-76
2021/06/14 04:05:59;;;;;;;5.38;3.35;;;17.00;61.70;;;;;;5071526;28;20454;-76
2021/06/14 04:08:24;;;;;;;5.18;3.38;;;17.00;61.80;;;;;;5073058;28;20049;-76
2021/06/14 04:10:50;;;;;;;4.97;3.90;;;17.00;61.90;;;;;;5071367;28;20479;-76
2021/06/14 04:13:17;;;;;;;5.32;3.58;;;17.10;62.30;;;;;;5071505;28;20021;-76
2021/06/14 04:15:43;;;;;;;6.90;4.00;;;17.10;62.10;;;;;;5072441;28;20560;-76
2021/06/14 04:18:09;;;;;;;5.47;3.55;;;17.10;62.10;;;;;;5071336;28;20032;-76
2021/06/14 04:20:35;;;;;;;5.78;3.72;;;17.10;62.10;;;;;;5072628;28;20533;-76
2021/06/14 04:23:01;;;;;;;7.07;3.92;;;17.10;62.10;;;;;;5071261;28;20128;-76
2021/06/14 04:25:27;;;;;;;6.07;4.10;;;17.20;62.10;;;;;;5072480;28;20103;-76
2021/06/14 04:27:53;;;;;;;6.88;4.05;;;17.20;62.10;;;;;;5072624;28;20182;-76
2021/06/14 04:30:19;;;;;;;5.93;3.45;;;17.20;62.20;;;;;;5072461;28;20046;-76
2021/06/14 04:32:45;;;;;;;7.22;4.35;;;17.20;62.20;;;;;;5071065;28;20029;-76
2021/06/14 04:35:11;;;;;;;7.25;3.80;;;17.20;62.10;;;;;;5071208;28;20494;-76
2021/06/14 04:37:37;;;;;;;7.45;4.07;;;17.30;62.10;;;;;;5072429;28;20036;-76
2021/06/14 04:40:05;;;;;;;6.55;3.83;;;17.30;62.10;;;;;;5071076;28;20025;-77
2021/06/14 04:42:31;;;;;;;6.00;4.00;;;17.40;62.20;;;;;;5072336;28;20373;-76
2021/06/14 04:44:57;;;;;;;5.93;3.63;;;17.40;62.10;;;;;;5071031;28;20031;-76
2021/06/14 04:47:23;;;;;;;7.10;3.70;;;17.40;62.00;;;;;;5071105;28;20021;-76
2021/06/14 04:49:49;;;;;;;6.10;3.95;;;17.40;61.90;;;;;;5071057;28;20107;-76
2021/06/14 04:52:14;;;;;;;4.60;3.67;;;17.50;61.90;;;;;;5072219;28;20056;-76
2021/06/14 04:54:41;;;;;;;6.45;3.75;;;17.50;61.80;;;;;;5072086;28;20027;-76
2021/06/14 04:57:07;;;;;;;6.78;3.58;;;17.50;61.80;;;;;;5074965;28;20068;-76
2021/06/14 04:59:33;;;;;;;6.30;3.63;;;17.60;61.90;;;;;;5075917;28;20037;-77
2021/06/14 05:01:59;;;;;;;5.75;3.83;;;17.60;61.80;;;;;;5074525;28;20127;-76
2021/06/14 05:04:25;;;;;;;6.10;3.80;;;17.70;61.80;;;;;;5074379;28;20377;-76
2021/06/14 05:06:51;;;;;;;8.95;4.03;;;17.80;61.60;;;;;;5074533;28;20071;-76
2021/06/14 05:09:16;;;;;;;8.18;3.60;;;17.80;61.50;;;;;;5074532;28;20539;-76
2021/06/14 05:11:42;;;;;;;6.03;3.80;;;17.80;61.20;;;;;;5074705;28;20023;-76
2021/06/14 05:14:07;;;;;;;6.45;3.40;;;17.90;61.00;;;;;;5075659;28;20056;-76
2021/06/14 05:16:33;;;;;;;9.40;4.22;;;17.90;60.80;;;;;;5075547;28;20095;-77
2021/06/14 05:18:59;;;;;;;6.13;3.78;;;18.00;60.70;;;;;;5074523;28;20070;-79
2021/06/14 05:21:25;;;;;;;5.47;3.42;;;18.10;60.60;;;;;;5074745;28;20025;-77
2021/06/14 05:23:51;;;;;;;5.40;3.05;;;18.10;60.50;;;;;;5074693;28;20028;-76
2021/06/14 05:26:17;;;;;;;6.53;3.67;;;18.10;60.30;;;;;;5074159;28;20024;-75
2021/06/14 05:28:43;;;;;;;5.88;3.50;;;18.20;60.10;;;;;;5074098;28;20024;-75
2021/06/14 05:31:09;;;;;;;6.53;2.97;;;18.20;59.90;;;;;;5074131;28;20031;-75
2021/06/14 05:33:35;;;;;;;5.95;2.95;;;18.30;59.70;;;;;;5074316;28;20111;-76
2021/06/14 05:36:00;;;;;;;6.95;3.40;;;18.30;59.60;;;;;;5074016;28;20174;-76
2021/06/14 05:38:26;;;;;;;5.78;3.30;;;18.40;59.50;;;;;;5075377;28;20040;-76
2021/06/14 05:40:52;;;;;;;5.72;3.50;;;18.50;59.50;;;;;;5074482;28;20431;-75
2021/06/14 05:46:40;;;;;;;5.60;3.20;;;18.60;59.30;;;;;;5075589;28;20090;-76
2021/06/14 05:49:05;;;;;;;4.40;3.00;;;18.60;59.60;;;;;;5075067;28;20024;-76
2021/06/14 05:51:31;;;;;;;4.28;2.85;;;18.70;58.90;;;;;;5073717;28;20021;-76
2021/06/14 05:53:57;;;;;;;4.18;3.00;;;18.70;58.70;;;;;;5073576;28;20047;-75
2021/06/14 05:56:23;;;;;;;5.05;2.80;;;18.80;58.60;;;;;;5074780;28;20025;-76
2021/06/14 05:58:49;;;;;;;6.20;3.30;;;18.80;58.40;;;;;;5074901;28;20116;-76
2021/06/14 06:01:15;;;;;;;4.97;2.88;;;18.90;58.40;;;;;;5073512;28;20438;-74
2021/06/14 06:03:41;;;;;;;6.10;3.00;;;18.90;58.30;;;;;;5075017;28;20025;-75
2021/06/14 06:06:07;;;;;;;4.35;2.97;;;19.00;58.20;;;;;;5057541;28;20088;-77
2021/06/14 06:08:33;;;;;;;4.45;2.95;;;19.00;58.10;;;;;;5076415;28;20016;-75
2021/06/14 06:10:58;;;;;;;5.55;3.35;;;19.10;58.00;;;;;;5074621;28;20056;-75
2021/06/14 06:13:24;;;;;;;3.65;2.65;;;19.10;57.90;;;;;;5074933;28;20460;-76
2021/06/14 06:15:50;;;;;;;3.28;2.47;;;19.20;57.90;;;;;;5075058;28;20058;-76
2021/06/14 06:18:16;;;;;;;6.30;3.03;;;19.20;57.80;;;;;;5074630;28;20028;-76
2021/06/14 06:20:41;;;;;;;5.00;2.60;;;19.20;57.70;;;;;;5074228;28;20025;-75
2021/06/14 06:23:07;;;;;;;4.97;2.75;;;19.30;57.70;;;;;;5074256;28;20082;-75
2021/06/14 06:25:33;;;;;;;4.32;2.70;;;19.30;57.70;;;;;;5075406;28;20021;-76
2021/06/14 06:27:59;;;;;;;5.28;2.75;;;19.40;57.70;;;;;;5075861;28;20031;-75
2021/06/14 06:30:27;;;;;;;5.80;3.38;;;19.40;57.60;;;;;;5075795;28;20068;-76
2021/06/14 06:32:53;;;;;;;5.32;2.53;;;19.40;57.70;;;;;;5074945;28;20033;-76
2021/06/14 06:35:20;;;;;;;6.15;3.35;;;19.50;57.70;;;;;;5074390;28;20132;-75
2021/06/14 06:37:46;;;;;;;5.15;2.63;;;19.50;57.60;;;;;;5074880;28;20044;-75
2021/06/14 06:40:13;;;;;;;5.25;3.08;;;19.60;57.60;;;;;;5074842;28;20166;-76
2021/06/14 06:42:39;;;;;;;5.72;2.97;;;19.60;57.60;;;;;;5074659;28;20025;-76
2021/06/14 06:45:06;;;;;;;5.55;3.00;;;19.70;57.70;;;;;;5073468;28;20484;-76
2021/06/14 06:47:32;;;;;;;7.05;3.20;;;19.70;57.70;;;;;;5074730;28;20035;-75
2021/06/14 06:49:58;;;;;;;7.78;3.22;;;19.80;58.30;;;;;;5073379;28;20490;-75
2021/06/14 06:52:24;;;;;;;3.92;2.75;;;19.80;57.70;;;;;;5073298;28;20028;-76
2021/06/14 06:54:49;;;;;;;4.80;2.90;;;19.80;57.70;;;;;;5074693;28;20064;-76
2021/06/14 06:57:16;;;;;;;4.45;3.00;;;19.90;57.60;;;;;;5074727;28;20041;-75
2021/06/14 06:59:42;;;;;;;5.10;2.95;;;20.00;57.60;;;;;;5073000;28;20490;-76
2021/06/14 07:02:08;;;;;;;6.05;3.00;;;20.00;57.60;;;;;;5074479;28;20029;-76
2021/06/14 07:04:34;;;;;;;4.75;3.00;;;20.10;57.50;;;;;;5073877;28;20036;-76
2021/06/14 07:07:00;;;;;;;4.65;3.35;;;20.10;57.40;;;;;;5073189;28;20523;-76
2021/06/14 07:09:25;;;;;;;5.65;2.80;;;20.20;57.40;;;;;;5075311;28;20021;-77
2021/06/14 07:11:51;;;;;;;5.00;2.78;;;20.20;57.20;;;;;;5073744;28;20469;-76
2021/06/14 07:14:17;;;;;;;4.20;2.67;;;20.30;57.10;;;;;;5075159;28;20028;-76
2021/06/14 07:16:42;;;;;;;3.80;2.63;;;20.30;57.00;;;;;;5072714;28;20130;-76
2021/06/14 07:19:08;;;;;;;3.55;2.58;;;20.40;57.00;;;;;;5074049;28;20036;-76
2021/06/14 07:21:34;;;;;;;4.55;3.00;;;20.50;56.90;;;;;;5074353;28;20060;-76
2021/06/14 07:24:00;;;;;;;5.60;3.50;;;20.50;56.90;;;;;;5074168;28;20036;-76
2021/06/14 07:26:27;;;;;;;4.35;2.70;;;20.60;56.80;;;;;;5076294;28;20044;-76
2021/06/14 07:28:52;;;;;;;4.53;2.60;;;20.70;56.70;;;;;;5075336;28;20036;-76
2021/06/14 07:31:19;;;;;;;5.53;2.83;;;20.70;56.50;;;;;;5073235;28;20472;-76
2021/06/14 07:33:44;;;;;;;4.28;3.08;;;20.80;56.40;;;;;;5074065;28;20099;-77
2021/06/14 07:36:11;;;;;;;4.13;2.50;;;20.90;56.30;;;;;;5074705;28;20102;-76
2021/06/14 07:38:37;;;;;;;4.68;2.72;;;20.90;56.10;;;;;;5073555;28;20028;-77
2021/06/14 07:41:04;;;;;;;5.47;2.78;;;21.00;56.00;;;;;;5073239;28;20419;-76
2021/06/14 07:43:30;;;;;;;5.82;2.78;;;21.10;56.00;;;;;;5073599;28;20068;-76
2021/06/14 07:45:56;;;;;;;3.85;2.63;;;21.20;55.90;;;;;;5074236;28;20048;-76
2021/06/14 07:48:25;;;;;;;3.97;2.60;;;21.20;55.80;;;;;;5074720;28;20423;-76
2021/06/14 07:50:53;;;;;;;6.75;2.80;;;21.30;55.70;;;;;;5075029;28;20476;-76
2021/06/14 07:53:19;;;;;;;5.68;2.78;;;21.40;55.60;;;;;;5074236;28;20029;-76
2021/06/14 07:59:07;;;;;;;4.65;2.85;;;21.50;55.50;;;;;;5075197;28;20036;-76
2021/06/14 08:01:32;;;;;;;4.50;2.88;;;21.50;55.40;;;;;;5072986;28;20480;-76
2021/06/14 08:03:59;;;;;;;4.28;2.70;;;21.50;55.40;;;;;;5072067;28;20032;-76
2021/06/14 08:06:24;;;;;;;6.30;3.20;;;21.60;55.30;;;;;;5074265;28;20024;-76
2021/06/14 08:08:50;;;;;;;5.05;2.90;;;21.70;55.20;;;;;;5073149;28;20024;-76
2021/06/14 08:11:18;;;;;;;5.82;2.80;;;21.80;55.20;;;;;;5073376;28;20039;-76
2021/06/14 08:13:44;;;;;;;5.25;2.78;;;21.90;55.20;;;;;;5072822;28;20056;-76
2021/06/14 08:16:09;;;;;;;4.55;2.58;;;21.90;55.10;;;;;;5073948;28;20056;-76
2021/06/14 08:18:45;;;;;;;6.80;3.33;;;22.00;55.10;;;;;;5074145;28;20028;-76
2021/06/14 08:26:41;;;;;;;4.80;2.72;;;22.20;54.70;;;;;;5073874;28;20415;-76
2021/06/14 08:29:07;;;;;;;3.50;2.60;;;22.30;54.50;;;;;;5074741;28;20423;-75
2021/06/14 08:31:35;;;;;;;4.18;2.58;;;22.40;54.20;;;;;;5077341;28;20078;-76
2021/06/14 08:34:01;;;;;;;3.75;2.38;;;22.50;53.80;;;;;;5075483;28;20060;-76
2021/06/14 08:36:26;;;;;;;3.58;2.08;;;22.50;53.50;;;;;;5076863;28;20029;-76
2021/06/14 08:38:53;;;;;;;3.28;2.15;;;22.60;53.30;;;;;;5075461;28;20025;-76
2021/06/14 08:41:22;;;;;;;3.20;2.10;;;22.60;53.10;;;;;;5075163;28;20054;-76
2021/06/14 08:43:49;;;;;;;4.80;2.60;;;22.70;52.70;;;;;;5076397;28;20082;-76
2021/06/14 08:46:16;;;;;;;4.40;2.70;;;22.80;53.00;;;;;;5075288;28;20078;-76
2021/06/14 08:48:43;;;;;;;3.83;2.58;;;22.80;51.80;;;;;;5076274;28;20031;-77
2021/06/14 08:51:09;;;;;;;4.13;2.53;;;22.90;51.50;;;;;;5074841;28;20025;-76
2021/06/14 08:53:36;;;;;;;4.88;2.38;;;22.90;51.00;;;;;;5076171;28;20032;-77
2021/06/14 08:56:03;;;;;;;5.22;2.70;;;22.90;50.80;;;;;;5074860;28;20037;-77
2021/06/14 08:58:29;;;;;;;4.35;2.63;;;23.00;50.90;;;;;;5074801;28;20028;-76
2021/06/14 09:04:19;;;;;;;3.20;2.55;;;23.10;50.70;;;;;;5076150;28;20040;-77
2021/06/14 09:06:45;;;;;;;4.00;2.60;;;23.10;50.80;;;;;;5075913;28;20028;-76
2021/06/14 09:09:10;;;;;;;3.72;2.30;;;23.20;50.80;;;;;;5076014;28;20024;-77
2021/06/14 09:11:46;;;;;;;5.78;2.33;;;23.40;50.70;;;;;;5074526;28;20025;-77
2021/06/14 09:14:21;;;;;;;3.38;2.15;;;23.40;50.40;;;;;;5074537;28;20115;-76
2021/06/14 09:16:46;;;;;;;4.03;2.75;;;23.50;50.20;;;;;;5074446;28;20139;-76
2021/06/14 09:19:28;;;;;;;3.70;2.50;;;23.60;50.30;;;;;;5075948;28;20166;-77
2021/06/14 09:21:55;;;;;;;5.82;2.90;;;23.60;50.00;;;;;;5075629;28;20032;-77
2021/06/14 09:24:22;;;;;;;3.72;2.42;;;23.60;49.90;;;;;;5074255;28;20021;-77
2021/06/14 09:26:48;;;;;;;4.35;2.40;;;23.70;50.40;;;;;;5075570;28;20024;-76
2021/06/14 09:29:20;;;;;;;5.80;2.42;;;23.80;49.60;;;;;;5074258;28;20486;-77
2021/06/14 09:31:52;;;;;;;3.88;2.50;;;23.80;49.00;;;;;;5074411;28;20025;-77
2021/06/14 09:34:19;;;;;;;4.32;2.28;;;23.90;48.40;;;;;;5075457;28;20056;-77
2021/06/14 09:36:58;;;;;;;3.13;2.10;;;24.00;48.00;;;;;;5075415;28;20035;-77
2021/06/14 09:39:24;;;;;;;3.95;2.25;;;24.00;47.60;;;;;;5074236;28;20036;-77
2021/06/14 09:41:52;;;;;;;4.40;2.60;;;24.00;47.50;;;;;;5074663;28;20039;-77
2021/06/14 09:44:36;;;;;;;4.13;2.40;;;24.00;47.20;;;;;;5075218;28;20034;-75
2021/06/14 09:47:15;;;;;;;;;;;24.00;47.00;;;;;;5075462;28;20036;-77
2021/06/14 09:53:15;;;;;;;5.07;2.55;;;24.00;47.10;;;;;;5075697;28;20027;-77
2021/06/14 09:55:41;;;;;;;5.38;2.83;;;24.10;46.90;;;;;;5073866;28;20408;-77
2021/06/14 09:58:25;;;;;;;6.88;3.42;;;24.20;46.70;;;;;;5074915;28;20032;-77
2021/06/14 10:04:32;;;;;;;8.73;4.80;;;24.40;46.20;;;;;;5074839;28;20031;-76
2021/06/14 10:07:12;;;;;;;11.65;4.85;;;24.40;45.70;;;;;;5074725;28;20029;-76
2021/06/14 10:09:42;;;;;;;6.07;4.00;;;24.40;45.70;;;;;;5073315;28;20033;-75
2021/06/14 10:12:22;;;;;;;5.50;3.78;;;24.40;46.00;;;;;;5074484;28;20087;-75
2021/06/14 10:14:50;;;;;;;7.60;4.03;;;24.40;46.00;;;;;;5073350;28;20033;-75
2021/06/14 10:17:15;;;;;;;7.78;4.82;;;24.50;46.10;;;;;;5073140;28;20127;-75
2021/06/14 10:19:41;;;;;;;9.73;4.60;;;24.50;45.80;;;;;;5074441;28;20056;-75
2021/06/14 10:22:07;;;;;;;8.35;4.40;;;24.60;45.40;;;;;;5074103;28;20040;-75
2021/06/14 10:24:32;;;;;;;5.15;3.75;;;24.60;45.20;;;;;;5073128;28;20032;-75
2021/06/14 10:26:59;;;;;;;6.47;4.20;;;24.70;44.70;;;;;;5073103;28;20020;-75
2021/06/14 10:29:25;;;;;;;7.72;3.65;;;24.80;44.50;;;;;;5074203;28;20025;-75
2021/06/14 10:31:53;;;;;;;5.30;3.47;;;24.80;43.80;;;;;;5072834;28;20401;-76
2021/06/14 10:34:19;;;;;;;7.72;4.35;;;24.80;43.00;;;;;;5073275;28;20028;-76
2021/06/14 10:36:51;;;;;;;5.55;3.70;;;24.90;42.70;;;;;;5073097;28;20044;-76
2021/06/14 10:39:21;;;;;;;6.60;4.40;;;25.00;42.80;;;;;;5073273;28;20036;-76
2021/06/14 10:41:48;;;;;;;5.28;3.40;;;25.10;42.60;;;;;;5072803;28;20487;-75
2021/06/14 10:44:13;;;;;;;7.00;3.95;;;25.10;42.60;;;;;;5073965;28;20041;-75
2021/06/14 10:46:47;;;;;;;6.32;4.20;;;25.10;42.00;;;;;;5072434;28;20392;-75
2021/06/14 10:49:14;;;;;;;6.88;3.80;;;25.20;42.10;;;;;;5072582;28;20484;-76
2021/06/14 10:51:41;;;;;;;5.10;3.10;;;25.20;42.00;;;;;;5071942;28;20024;-75
2021/06/14 10:54:12;;;;;;;11.07;4.47;;;25.40;42.20;;;;;;5073522;28;20399;-76
2021/06/14 10:56:39;;;;;;;7.32;3.40;;;25.40;41.60;;;;;;5073722;28;20043;-76
2021/06/14 10:59:07;;;;;;;5.03;3.10;;;25.50;41.80;;;;;;5072368;28;20040;-76
2021/06/14 11:01:38;;;;;;;5.72;3.67;;;25.60;41.90;;;;;;5072163;28;20063;-75
2021/06/14 11:04:06;;;;;;;5.88;3.85;;;25.60;41.80;;;;;;5073431;28;20063;-76
2021/06/14 11:06:34;;;;;;;8.30;4.20;;;25.70;41.90;;;;;;5072125;28;20024;-75
2021/06/14 11:09:11;;;;;;;7.07;4.57;;;25.80;41.80;;;;;;5073490;28;20082;-76
2021/06/14 11:12:02;;;;;;;6.65;3.35;;;25.90;41.60;;;;;;5073547;28;20020;-76
2021/06/14 11:14:43;;;;;;;4.93;2.80;;;25.90;41.70;;;;;;5069800;28;20040;-76
2021/06/14 11:17:25;;;;;;;4.20;3.10;;;26.00;41.80;;;;;;5072006;28;20114;-76
2021/06/14 11:19:59;;;;;;;5.35;2.90;;;26.10;41.70;;;;;;5072186;28;20032;-76
2021/06/14 11:22:39;;;;;;;6.82;3.85;;;26.20;41.60;;;;;;5072009;28;20036;-76
2021/06/14 11:25:26;;;;;;;5.03;3.17;;;26.30;41.60;;;;;;5072203;28;20487;-76
2021/06/14 11:27:52;;;;;;;4.38;3.50;;;26.40;41.00;;;;;;5071866;28;20020;-75
2021/06/14 11:30:24;;;;;;;4.03;3.10;;;26.50;41.00;;;;;;5071958;28;20091;-76
2021/06/14 11:32:49;;;;;;;5.18;3.42;;;26.50;41.00;;;;;;5073283;28;20036;-75
2021/06/14 11:35:16;;;;;;;5.60;4.03;;;26.60;41.20;;;;;;5073319;28;20035;-75
2021/06/14 11:37:47;;;;;;;5.35;3.38;;;26.70;40.80;;;;;;5071739;28;20031;-76
2021/06/14 11:40:23;;;;;;;6.72;3.58;;;26.80;40.90;;;;;;5073196;28;20032;-76
2021/06/14 11:42:53;;;;;;;7.05;3.35;;;26.80;40.70;;;;;;5071710;28;20024;-76
2021/06/14 11:45:22;;;;;;;7.63;3.97;;;26.90;40.80;;;;;;5072199;28;20078;-75
2021/06/14 11:47:47;;;;;;;6.40;2.90;;;26.90;40.60;;;;;;5072364;28;20094;-75
2021/06/14 11:50:20;;;;;;;6.28;2.97;;;27.00;40.80;;;;;;5073358;28;20024;-76
2021/06/14 11:53:03;;;;;;;4.18;3.30;;;27.00;40.80;;;;;;5073965;28;20063;-76
2021/06/14 11:55:32;;;;;;;6.18;2.97;;;27.20;41.00;;;;;;5073676;28;20044;-75
2021/06/14 11:58:02;;;;;;;4.07;2.53;;;27.30;41.10;;;;;;5072766;28;20028;-76
2021/06/14 12:00:35;;;;;;;4.05;2.25;;;27.50;40.90;;;;;;5072199;28;20024;-75
2021/06/14 12:03:00;;;;;;;5.70;2.67;;;27.60;40.60;;;;;;5072639;28;20036;-75
2021/06/14 12:05:34;;;;;;;3.83;2.47;;;27.60;40.50;;;;;;5071661;28;20503;-76
2021/06/14 12:08:01;;;;;;;4.00;2.35;;;27.70;40.50;;;;;;5073359;28;20099;-75
2021/06/14 12:10:27;;;;;;;4.95;2.55;;;27.80;40.40;;;;;;5071723;28;20173;-75
2021/06/14 12:13:06;;;;;;;5.00;2.47;;;27.90;40.40;;;;;;5073217;28;20127;-76
2021/06/14 12:15:33;;;;;;;5.78;2.92;;;28.00;40.30;;;;;;5072873;28;20102;-75
2021/06/14 12:17:59;;;;;;;5.85;2.80;;;28.00;40.30;;;;;;5072721;28;20127;-75
2021/06/14 12:20:27;;;;;;;4.30;2.60;;;28.10;40.40;;;;;;5071963;28;20020;-75
2021/06/14 12:23:05;;;;;;;5.57;2.38;;;28.20;40.50;;;;;;5071254;28;20033;-75
2021/06/14 12:25:32;;;;;;;5.60;3.20;;;28.30;40.60;;;;;;5072856;28;20028;-75
2021/06/14 12:28:03;;;;;;;6.55;3.58;;;28.30;40.40;;;;;;5072668;28;20443;-75
2021/06/14 12:30:30;;;;;;;4.35;2.47;;;28.40;40.40;;;;;;5072536;28;20059;-75
2021/06/14 12:36:19;;;;;;;3.58;2.50;;;28.50;40.30;;;;;;5072620;28;20036;-75
2021/06/14 12:38:53;;;;;;;3.90;2.90;;;28.60;40.30;;;;;;5071130;28;20033;-75
2021/06/14 12:41:20;;;;;;;3.15;2.33;;;28.60;40.10;;;;;;5072494;28;20036;-75
2021/06/14 12:43:46;;;;;;;4.22;2.60;;;28.70;40.20;;;;;;5071032;28;20166;-75
2021/06/14 12:46:14;;;;;;;4.70;2.97;;;28.80;40.20;;;;;;5071294;28;20021;-75
2021/06/14 12:48:40;;;;;;;4.25;2.38;;;28.90;40.00;;;;;;5071132;28;20028;-75
2021/06/14 12:51:08;;;;;;;4.88;2.38;;;28.90;40.00;;;;;;5072418;28;20028;-76
2021/06/14 12:53:34;;;;;;;3.83;2.47;;;29.00;40.00;;;;;;5072569;28;20037;-75
2021/06/14 12:56:00;;;;;;;5.35;2.40;;;29.20;39.90;;;;;;5072586;28;20033;-75
2021/06/14 12:58:40;;;;;;;3.58;2.30;;;29.30;39.90;;;;;;5072918;28;20029;-75
2021/06/14 13:01:09;;;;;;;4.38;2.40;;;29.40;40.40;;;;;;5071390;28;20033;-75
2021/06/14 13:03:39;;;;;;;4.53;2.67;;;29.60;39.80;;;;;;5072272;28;20099;-75
2021/06/14 13:06:06;;;;;;;3.45;2.40;;;29.70;38.80;;;;;;5071265;28;20365;-75
2021/06/14 13:08:33;;;;;;;4.40;2.58;;;29.70;38.40;;;;;;5072964;28;20111;-76
2021/06/14 13:14:47;;;;;;;4.05;2.60;;;29.70;37.60;;;;;;5072375;28;20122;-76
2021/06/14 13:17:18;;;;;;;3.63;2.20;;;29.70;37.40;;;;;;5075471;28;20045;-76
2021/06/14 13:19:44;;;;;;;3.22;2.50;;;29.70;37.40;;;;;;5074416;28;20029;-75
2021/06/14 13:22:13;;;;;;;2.65;2.08;;;29.80;37.70;;;;;;5075625;28;20036;-75
2021/06/14 13:24:44;;;;;;;3.60;2.10;;;29.90;37.60;;;;;;5074163;28;20040;-76
2021/06/14 13:27:12;;;;;;;2.83;2.50;;;30.00;37.70;;;;;;5075727;28;20159;-75